Airfield :







YOU CAN JOIN US ON...

 
LOGIN :

Register | Disclaimer

   EN    FR    IT 

 









Legend :    VFR   Marginal VFR   IFR   Intensive IFR   Very Intensive IFR
Visi :
Ceiling :
>= 8 km
>= 3000ft
5 to 8 km
1000 to 3000 ft
1500m to 5 km
500 to 1000 ft
800 to 1500m
200 to 500 ft
< 800m
< 200 ft
Symbols :   Thunderstorms  Fog  Heavy snow  Heavy precipitations  Wind > 20 kt






- Airport Elevation : 335 ft
- IATA code : BTV


KBTV - Burlington International

CURRENT METAR :
  • 120254Z 31017G28KT 10SM -SN FEW041 SCT100 M03/M11 A3030 RMK AO2 PK WND 29030/0238 SNB53 PRESRR SLP268 P0000 60001 T10331111 51052

EXPIRED METARs :
  • 120154Z 26014G25KT 10SM R15/6000VP6000FT FEW100 M03/M11 A3025 RMK AO2 PK WND 26027/0136 SNE01 SLP248 P0000 T10281111
  • 120105Z 28013G22KT 9SM BKN039 OVC065 M03/M08 A3022 RMK AO2 SNE01 P0000 T10281078
  • 120054Z 28012G22KT 4SM -SN FEW012 OVC021 M03/M06 A3022 RMK AO2 PK WND 29027/0034 WSHFT 0014 SNB28 SLP238 P0001 T10331061
  • 120037Z 29016G27KT 3/4SM R15/2200V5500FT -SN FEW006 BKN025 OVC036 M03/M06 A3020 RMK AO2 PK WND 29027/0034 WSHFT 0014 SNB28 P0000 T10331061
  • 120035Z 30021G27KT 1 1/4SM R15/2400VP6000FT -SN FEW010 BKN030 OVC036 M03/M06 A3020 RMK AO2 PK WND 29027/0034 WSHFT 0014 SNB28 P0000 T10331061

TAF KBTV
Valid from the 12 at 00:00 until the 13 at 00:00 UTC


112336Z 1200/1224 22011G19KT P6SM -SHSN BKN050
TEMPO 1200/1201 25015G25KT 1 1/2SM -SHSN BR BLSN SCT015 OVC025
FM120200 25015G23KT P6SM SCT040 BKN070
FM120400 29015G23KT P6SM FEW040 SCT070
FM121000 30009KT P6SM FEW070
FM121800 18006KT P6SM SCT070



MET'MAP, your aeronautical weather chart ! - Copyright ORBIFLY December 2007 - Disclaimer

ORBIFLY MET'MAP TEAM :

Programming & Development : Alexandra Zaïnal
Concept & original design : Baudouin d'Aumeries
Assistance for programming : Marc-Olivier Méhu
Technical & hardware support : Manuel Goepfert

Contact : metmap@orbifly.com




SOURCES & CREDITS :

   NOAA